createdAt,value
2018-04-24T00:03:58.266Z,12.97
2018-04-24T00:09:49.033Z,18.46
2018-04-24T00:15:39.704Z,13.23
2018-04-24T00:21:30.411Z,10.91
2018-04-24T00:27:21.135Z,11.87
2018-04-24T00:33:11.910Z,15.63
2018-04-24T00:39:02.623Z,10.86
2018-04-24T00:44:53.328Z,16.9
2018-04-24T00:50:44.018Z,13.74
2018-04-24T00:56:34.742Z,10.31
2018-04-24T01:02:25.519Z,11.65
2018-04-24T01:08:16.184Z,11.96
2018-04-24T01:14:06.919Z,17.24
2018-04-24T01:19:57.637Z,13.1
2018-04-24T01:25:48.371Z,10.56
2018-04-24T01:31:39.087Z,16.64
2018-04-24T01:37:29.826Z,15.99
2018-04-24T01:43:20.588Z,12.78
2018-04-24T01:49:11.247Z,12.32
2018-04-24T01:55:01.976Z,12.07
2018-04-24T02:00:52.704Z,13.65
2018-04-24T02:06:43.427Z,14.72
2018-04-24T02:12:34.137Z,9.43
2018-04-24T02:18:24.858Z,14.84
2018-04-24T02:24:15.564Z,13.69
2018-04-24T02:30:06.282Z,15.02
2018-04-24T02:35:57.028Z,22.27
2018-04-24T02:41:47.791Z,11.49
2018-04-24T02:47:38.464Z,16.88
2018-04-24T02:53:29.181Z,13.77
2018-04-24T02:59:19.950Z,12.95
2018-04-24T03:05:10.639Z,16.7
2018-04-24T03:11:01.335Z,11.44
2018-04-24T03:16:52.174Z,16.7
2018-04-24T03:22:42.782Z,12.51
2018-04-24T03:28:33.494Z,13.9
2018-04-24T03:34:24.200Z,14.72
2018-04-24T03:40:14.967Z,12.25
2018-04-24T03:46:05.663Z,13.79
2018-04-24T03:51:56.369Z,15.77
2018-04-24T03:57:47.091Z,10.79
2018-04-24T04:03:37.825Z,14.93
2018-04-24T04:09:28.564Z,13.99
2018-04-24T04:15:19.284Z,16.42
2018-04-24T04:21:10.063Z,16.21
2018-04-24T04:27:00.748Z,13.52
2018-04-24T04:32:51.403Z,13.73
2018-04-24T04:38:42.079Z,12.24
2018-04-24T04:44:32.854Z,15.93
2018-04-24T04:50:23.569Z,13.37
2018-04-24T04:56:14.350Z,17.18
2018-04-24T05:02:04.967Z,14.1
2018-04-24T05:07:55.737Z,16.75
2018-04-24T05:13:46.459Z,17.58
2018-04-24T05:19:37.176Z,12.81
2018-04-24T05:25:27.844Z,14.14
2018-04-24T05:31:18.589Z,14.25
2018-04-24T05:37:09.234Z,17.14
2018-04-24T05:42:59.978Z,15
2018-04-24T05:48:50.687Z,12.83
2018-04-24T05:54:41.452Z,15.39
2018-04-24T06:00:32.166Z,19.34
2018-04-24T06:06:22.903Z,23.09
2018-04-24T06:12:13.593Z,18.9
2018-04-24T06:18:04.272Z,20.49
2018-04-24T06:23:55.047Z,15.52
2018-04-24T06:29:45.705Z,23.29
2018-04-24T06:35:36.452Z,23.05
2018-04-24T06:41:27.147Z,18.31
2018-04-24T06:47:17.912Z,20.38
2018-04-24T06:53:08.631Z,25.57
2018-04-24T06:58:59.347Z,22.02
2018-04-24T07:04:50.068Z,26.04
2018-04-24T07:10:40.808Z,22.41
2018-04-24T07:16:31.490Z,24.24
2018-04-24T07:22:22.277Z,25.01
2018-04-24T07:28:12.989Z,25.79
2018-04-24T07:34:03.712Z,26.04
2018-04-24T07:39:54.392Z,23.72
2018-04-24T07:45:45.146Z,26.16
2018-04-24T07:51:35.843Z,28.49
2018-04-24T07:57:26.581Z,25.76
2018-04-24T08:03:17.316Z,30.09
2018-04-24T08:09:08.046Z,30.48
2018-04-24T08:14:58.765Z,31.42
2018-04-24T08:20:49.511Z,32.56
2018-04-24T08:26:40.259Z,37.66
2018-04-24T08:32:30.998Z,42.4
2018-04-24T08:38:21.718Z,33.05
2018-04-24T08:44:12.465Z,32.71
2018-04-24T08:50:03.175Z,31.78
2018-04-24T08:55:53.937Z,36.7
2018-04-24T09:01:44.677Z,25.34
2018-04-24T09:07:35.427Z,33.83
2018-04-24T09:13:26.117Z,32.2
2018-04-24T09:19:16.883Z,27.23
2018-04-24T09:25:07.581Z,32.99
2018-04-24T09:30:58.334Z,22.81
2018-04-24T09:36:49.052Z,20.72
2018-04-24T09:42:39.848Z,19.33
2018-04-24T09:48:30.523Z,21.69
2018-04-24T09:54:21.279Z,19.58
2018-04-24T10:00:12.041Z,19.38
2018-04-24T10:06:02.785Z,19.61
2018-04-24T10:11:53.544Z,28.07
2018-04-24T10:17:44.273Z,19.74
2018-04-24T10:23:35.042Z,18.63
2018-04-24T10:29:25.757Z,25.19
2018-04-24T10:35:16.522Z,22.1
2018-04-24T10:41:07.252Z,20.99
2018-04-24T10:46:57.985Z,21.06
2018-04-24T10:52:48.747Z,19.49
2018-04-24T10:58:39.457Z,19.63
2018-04-24T11:04:30.212Z,17.3
2018-04-24T11:10:21.003Z,13.48
2018-04-24T11:16:11.718Z,16.28
2018-04-24T11:22:02.431Z,15.84
2018-04-24T11:27:53.194Z,18.18
2018-04-24T11:33:43.938Z,12.46
2018-04-24T11:39:34.731Z,17.12
2018-04-24T11:45:25.494Z,18.14
2018-04-24T11:51:16.251Z,18.3
2018-04-24T11:57:07.015Z,9.74
2018-04-24T12:02:57.755Z,17.87
2018-04-24T12:08:48.521Z,12.07
2018-04-24T12:14:39.280Z,12.59
2018-04-24T12:20:30.049Z,16.71
2018-04-24T12:26:20.832Z,12.64
2018-04-24T12:32:11.637Z,19.21
2018-04-24T12:38:02.408Z,15.35
2018-04-24T12:43:53.150Z,17.45
2018-04-24T12:49:43.960Z,13.13
2018-04-24T12:55:34.672Z,11.74
2018-04-24T13:01:25.483Z,13.32
2018-04-24T13:07:16.280Z,12.4
2018-04-24T13:13:07.022Z,12.81
2018-04-24T13:18:57.893Z,9.55
2018-04-24T13:24:48.605Z,13.14
2018-04-24T13:30:39.365Z,8.39
2018-04-24T13:36:30.131Z,9.37
2018-04-24T13:42:20.909Z,10.4
2018-04-24T13:48:11.715Z,10.35
2018-04-24T13:54:02.509Z,17.33
2018-04-24T13:59:53.313Z,12.59
2018-04-24T14:05:44.086Z,7.91
2018-04-24T14:11:34.823Z,11.09
2018-04-24T14:17:25.663Z,9.25
2018-04-24T14:23:16.386Z,12.79
2018-04-24T14:29:07.197Z,17.59
2018-04-24T14:34:57.981Z,10.31
2018-04-24T14:40:48.784Z,8.73
2018-04-24T14:46:39.515Z,8.6
2018-04-24T14:52:30.296Z,10.58
2018-04-24T14:58:21.320Z,9.51
2018-04-24T15:04:11.919Z,10.01
2018-04-24T15:10:02.668Z,6.36
2018-04-24T15:15:53.470Z,9.59
2018-04-24T15:21:44.212Z,7.95
2018-04-24T15:27:35.004Z,9.93
2018-04-24T15:33:25.774Z,14.07
2018-04-24T15:39:16.553Z,7.74
2018-04-24T15:45:07.365Z,9.07
2018-04-24T15:50:58.141Z,10.37
2018-04-24T15:56:48.871Z,18.97
2018-04-24T16:02:39.639Z,14.26
2018-04-24T16:08:30.437Z,10.99
2018-04-24T16:14:21.275Z,13.14
2018-04-24T16:20:11.958Z,16.85
2018-04-24T16:26:02.732Z,13.63
2018-04-24T16:31:53.546Z,20.65
2018-04-24T16:37:44.286Z,26.11
2018-04-24T16:43:35.101Z,35.85
2018-04-24T16:49:25.802Z,15.51
2018-04-24T16:55:16.560Z,17.59
2018-04-24T17:01:07.316Z,18
2018-04-24T17:06:58.050Z,16.45
2018-04-24T17:12:48.880Z,15.19
2018-04-24T17:18:39.649Z,16.73
2018-04-24T17:24:30.345Z,21.05
2018-04-24T17:30:21.115Z,16.24
2018-04-24T17:36:11.826Z,12.65
2018-04-24T17:42:02.593Z,15.27
2018-04-24T17:47:53.377Z,17.61
2018-04-24T17:53:44.100Z,24.48
2018-04-24T17:59:34.862Z,13.09
2018-04-24T18:05:25.627Z,16.26
2018-04-24T18:11:16.515Z,22.47
2018-04-24T18:17:07.115Z,13.55
2018-04-24T18:22:57.846Z,19.87
2018-04-24T18:28:48.601Z,17.47
2018-04-24T18:34:39.408Z,23.2
2018-04-24T18:40:30.070Z,19.91
2018-04-24T18:46:20.823Z,18.78
2018-04-24T18:52:11.660Z,20.33
2018-04-24T18:58:02.317Z,20.33
2018-04-24T19:03:53.059Z,16.74
2018-04-24T19:09:43.848Z,16.36
2018-04-24T19:15:34.592Z,14.81
2018-04-24T19:21:25.293Z,14.31
2018-04-24T19:27:16.085Z,20.23
2018-04-24T19:33:06.793Z,13.48
2018-04-24T19:38:57.490Z,22
2018-04-24T19:44:48.275Z,18.84
2018-04-24T19:50:38.965Z,16.92
2018-04-24T19:56:29.739Z,15.11
2018-04-24T20:02:20.481Z,20.61
2018-04-24T20:08:11.239Z,19.93
2018-04-24T20:14:01.953Z,20.87
2018-04-24T20:19:52.693Z,15.35
2018-04-24T20:25:43.391Z,18.76
2018-04-24T20:31:34.126Z,19.49
2018-04-24T20:37:24.897Z,13.4
2018-04-24T20:43:15.617Z,15.39
2018-04-24T20:49:06.382Z,17.52
2018-04-24T20:54:57.137Z,15.46
2018-04-24T21:00:47.834Z,17.24
2018-04-24T21:06:38.555Z,13.08
2018-04-24T21:12:29.271Z,15.09
2018-04-24T21:18:20.030Z,11.77
2018-04-24T21:24:10.824Z,11.51
2018-04-24T21:30:01.493Z,13.42
2018-04-24T21:35:52.220Z,14.11
2018-04-24T21:41:42.962Z,16.99
2018-04-24T21:47:33.678Z,15.82
2018-04-24T21:53:24.453Z,18.43
2018-04-24T21:59:15.126Z,18.6
2018-04-24T22:05:05.938Z,17.2
2018-04-24T22:10:56.588Z,18.58
2018-04-24T22:16:47.320Z,15.68
2018-04-24T22:22:38.104Z,17.91
2018-04-24T22:28:28.802Z,18.69
2018-04-24T22:34:19.492Z,16.74
2018-04-24T22:40:10.239Z,15.13
2018-04-24T22:46:01.037Z,12.05
2018-04-24T22:51:51.683Z,17.91
2018-04-24T22:57:42.422Z,12.05
2018-04-24T23:03:33.177Z,15.01
2018-04-24T23:09:23.898Z,19.68
2018-04-24T23:15:14.592Z,14.44
2018-04-24T23:21:05.290Z,10.73
2018-04-24T23:26:56.073Z,20.11
2018-04-24T23:32:46.735Z,11.72
2018-04-24T23:38:37.499Z,15.59
2018-04-24T23:44:28.230Z,15.16
2018-04-24T23:50:19.005Z,18.87
2018-04-24T23:56:09.653Z,19.77
